sensor_id;sensor_type;location;lat;lon;timestamp;P1;durP1;ratioP1;P2;durP2;ratioP2
5742;SDS011;2896;53.500;10.020;2023-11-22T00:00:13;4.03;;;3.60;;
5742;SDS011;2896;53.500;10.020;2023-11-22T00:02:40;10.90;;;3.83;;
5742;SDS011;2896;53.500;10.020;2023-11-22T00:05:07;3.90;;;3.60;;
5742;SDS011;2896;53.500;10.020;2023-11-22T00:07:36;4.13;;;3.80;;
5742;SDS011;2896;53.500;10.020;2023-11-22T00:10:03;4.80;;;4.13;;
5742;SDS011;2896;53.500;10.020;2023-11-22T00:12:30;4.47;;;4.17;;
5742;SDS011;2896;53.500;10.020;2023-11-22T00:15:02;4.07;;;3.70;;
5742;SDS011;2896;53.500;10.020;2023-11-22T00:17:31;5.00;;;3.70;;
5742;SDS011;2896;53.500;10.020;2023-11-22T00:19:58;3.57;;;3.00;;
5742;SDS011;2896;53.500;10.020;2023-11-22T00:22:25;3.80;;;3.50;;
5742;SDS011;2896;53.500;10.020;2023-11-22T00:24:52;4.30;;;3.90;;
5742;SDS011;2896;53.500;10.020;2023-11-22T00:27:19;4.30;;;3.90;;
5742;SDS011;2896;53.500;10.020;2023-11-22T00:29:47;4.30;;;3.90;;
5742;SDS011;2896;53.500;10.020;2023-11-22T00:32:15;4.00;;;3.70;;
5742;SDS011;2896;53.500;10.020;2023-11-22T00:34:41;4.37;;;4.07;;
5742;SDS011;2896;53.500;10.020;2023-11-22T00:37:08;4.40;;;3.70;;
5742;SDS011;2896;53.500;10.020;2023-11-22T00:39:35;3.77;;;3.40;;
5742;SDS011;2896;53.500;10.020;2023-11-22T00:42:02;3.93;;;3.57;;
5742;SDS011;2896;53.500;10.020;2023-11-22T00:44:29;3.73;;;3.53;;
5742;SDS011;2896;53.500;10.020;2023-11-22T00:46:56;4.07;;;3.40;;
5742;SDS011;2896;53.500;10.020;2023-11-22T00:49:24;3.90;;;3.60;;
5742;SDS011;2896;53.500;10.020;2023-11-22T00:51:51;4.63;;;4.23;;
5742;SDS011;2896;53.500;10.020;2023-11-22T00:54:18;3.90;;;3.70;;
5742;SDS011;2896;53.500;10.020;2023-11-22T00:56:45;4.40;;;4.00;;
5742;SDS011;2896;53.500;10.020;2023-11-22T00:59:11;4.30;;;3.90;;
5742;SDS011;2896;53.500;10.020;2023-11-22T01:01:39;3.53;;;3.33;;
5742;SDS011;2896;53.500;10.020;2023-11-22T01:04:06;4.00;;;3.70;;
5742;SDS011;2896;53.500;10.020;2023-11-22T01:06:34;4.13;;;3.83;;
5742;SDS011;2896;53.500;10.020;2023-11-22T01:09:01;5.77;;;4.33;;
5742;SDS011;2896;53.500;10.020;2023-11-22T01:11:28;4.00;;;3.60;;
5742;SDS011;2896;53.500;10.020;2023-11-22T01:13:55;4.10;;;3.80;;
5742;SDS011;2896;53.500;10.020;2023-11-22T01:16:22;4.33;;;3.90;;
5742;SDS011;2896;53.500;10.020;2023-11-22T01:18:48;4.33;;;3.93;;
5742;SDS011;2896;53.500;10.020;2023-11-22T01:21:17;4.53;;;4.13;;
5742;SDS011;2896;53.500;10.020;2023-11-22T01:23:45;4.50;;;4.10;;
5742;SDS011;2896;53.500;10.020;2023-11-22T01:26:12;5.07;;;4.30;;
5742;SDS011;2896;53.500;10.020;2023-11-22T01:28:39;3.80;;;3.23;;
5742;SDS011;2896;53.500;10.020;2023-11-22T01:31:10;4.60;;;4.20;;
5742;SDS011;2896;53.500;10.020;2023-11-22T01:33:38;4.40;;;4.00;;
5742;SDS011;2896;53.500;10.020;2023-11-22T01:36:05;4.00;;;3.70;;
5742;SDS011;2896;53.500;10.020;2023-11-22T01:38:32;4.97;;;4.43;;
5742;SDS011;2896;53.500;10.020;2023-11-22T01:41:00;4.10;;;3.80;;
5742;SDS011;2896;53.500;10.020;2023-11-22T01:43:27;4.13;;;3.80;;
5742;SDS011;2896;53.500;10.020;2023-11-22T01:45:54;4.07;;;3.43;;
5742;SDS011;2896;53.500;10.020;2023-11-22T01:48:21;4.80;;;3.93;;
5742;SDS011;2896;53.500;10.020;2023-11-22T01:50:49;4.80;;;4.30;;
5742;SDS011;2896;53.500;10.020;2023-11-22T01:53:16;4.50;;;3.97;;
5742;SDS011;2896;53.500;10.020;2023-11-22T01:55:43;8.03;;;3.90;;
5742;SDS011;2896;53.500;10.020;2023-11-22T01:58:12;4.33;;;3.90;;
5742;SDS011;2896;53.500;10.020;2023-11-22T02:00:42;3.83;;;3.63;;
5742;SDS011;2896;53.500;10.020;2023-11-22T02:03:14;5.80;;;4.27;;
5742;SDS011;2896;53.500;10.020;2023-11-22T02:05:41;4.47;;;4.10;;
5742;SDS011;2896;53.500;10.020;2023-11-22T02:08:08;4.80;;;4.20;;
5742;SDS011;2896;53.500;10.020;2023-11-22T02:10:35;5.07;;;4.30;;
5742;SDS011;2896;53.500;10.020;2023-11-22T02:13:02;6.07;;;4.87;;
5742;SDS011;2896;53.500;10.020;2023-11-22T02:15:31;5.23;;;4.70;;
5742;SDS011;2896;53.500;10.020;2023-11-22T02:17:58;7.03;;;5.17;;
5742;SDS011;2896;53.500;10.020;2023-11-22T02:20:25;7.27;;;5.00;;
5742;SDS011;2896;53.500;10.020;2023-11-22T02:22:51;10.73;;;4.33;;
5742;SDS011;2896;53.500;10.020;2023-11-22T02:25:20;4.43;;;4.07;;
5742;SDS011;2896;53.500;10.020;2023-11-22T02:27:47;4.23;;;3.73;;
5742;SDS011;2896;53.500;10.020;2023-11-22T02:30:14;5.90;;;4.00;;
5742;SDS011;2896;53.500;10.020;2023-11-22T02:32:41;4.30;;;3.90;;
5742;SDS011;2896;53.500;10.020;2023-11-22T02:35:08;5.10;;;4.60;;
5742;SDS011;2896;53.500;10.020;2023-11-22T02:37:35;5.50;;;4.80;;
5742;SDS011;2896;53.500;10.020;2023-11-22T02:40:02;6.63;;;5.00;;
5742;SDS011;2896;53.500;10.020;2023-11-22T02:42:34;6.57;;;5.00;;
5742;SDS011;2896;53.500;10.020;2023-11-22T02:45:01;5.23;;;4.47;;
5742;SDS011;2896;53.500;10.020;2023-11-22T02:47:27;4.57;;;4.27;;
5742;SDS011;2896;53.500;10.020;2023-11-22T02:49:55;4.03;;;3.73;;
5742;SDS011;2896;53.500;10.020;2023-11-22T02:52:22;5.80;;;5.10;;
5742;SDS011;2896;53.500;10.020;2023-11-22T02:54:51;6.40;;;5.10;;
5742;SDS011;2896;53.500;10.020;2023-11-22T02:57:18;5.47;;;4.60;;
5742;SDS011;2896;53.500;10.020;2023-11-22T02:59:46;5.10;;;4.60;;
5742;SDS011;2896;53.500;10.020;2023-11-22T03:02:13;5.50;;;4.40;;
5742;SDS011;2896;53.500;10.020;2023-11-22T03:04:41;4.77;;;4.20;;
5742;SDS011;2896;53.500;10.020;2023-11-22T03:07:08;6.17;;;4.80;;
5742;SDS011;2896;53.500;10.020;2023-11-22T03:09:35;4.90;;;4.50;;
5742;SDS011;2896;53.500;10.020;2023-11-22T03:12:02;4.63;;;4.23;;
5742;SDS011;2896;53.500;10.020;2023-11-22T03:14:29;4.60;;;4.27;;
5742;SDS011;2896;53.500;10.020;2023-11-22T03:16:57;4.90;;;4.50;;
5742;SDS011;2896;53.500;10.020;2023-11-22T03:19:24;5.43;;;4.60;;
5742;SDS011;2896;53.500;10.020;2023-11-22T03:21:51;5.30;;;4.80;;
5742;SDS011;2896;53.500;10.020;2023-11-22T03:24:17;4.90;;;4.50;;
5742;SDS011;2896;53.500;10.020;2023-11-22T03:26:44;5.57;;;5.03;;
5742;SDS011;2896;53.500;10.020;2023-11-22T03:29:11;4.60;;;4.20;;
5742;SDS011;2896;53.500;10.020;2023-11-22T03:31:37;5.20;;;4.70;;
5742;SDS011;2896;53.500;10.020;2023-11-22T03:34:06;6.13;;;4.90;;
5742;SDS011;2896;53.500;10.020;2023-11-22T03:36:32;5.93;;;5.33;;
5742;SDS011;2896;53.500;10.020;2023-11-22T03:38:59;4.90;;;4.50;;
5742;SDS011;2896;53.500;10.020;2023-11-22T03:41:26;7.30;;;5.50;;
5742;SDS011;2896;53.500;10.020;2023-11-22T03:43:52;5.00;;;4.57;;
5742;SDS011;2896;53.500;10.020;2023-11-22T03:46:19;5.63;;;5.13;;
5742;SDS011;2896;53.500;10.020;2023-11-22T03:48:45;5.57;;;5.03;;
5742;SDS011;2896;53.500;10.020;2023-11-22T03:51:13;5.40;;;4.90;;
5742;SDS011;2896;53.500;10.020;2023-11-22T03:53:40;10.13;;;5.00;;
5742;SDS011;2896;53.500;10.020;2023-11-22T03:56:07;7.50;;;5.07;;
5742;SDS011;2896;53.500;10.020;2023-11-22T03:58:34;4.67;;;4.27;;
5742;SDS011;2896;53.500;10.020;2023-11-22T04:01:01;5.57;;;5.00;;
5742;SDS011;2896;53.500;10.020;2023-11-22T04:03:28;4.67;;;4.30;;
5742;SDS011;2896;53.500;10.020;2023-11-22T04:05:55;10.00;;;5.50;;
5742;SDS011;2896;53.500;10.020;2023-11-22T04:08:23;14.60;;;5.90;;
5742;SDS011;2896;53.500;10.020;2023-11-22T04:10:50;5.27;;;4.87;;
5742;SDS011;2896;53.500;10.020;2023-11-22T04:13:17;5.60;;;5.10;;
5742;SDS011;2896;53.500;10.020;2023-11-22T04:15:43;5.20;;;4.53;;
5742;SDS011;2896;53.500;10.020;2023-11-22T04:18:10;5.70;;;5.10;;
5742;SDS011;2896;53.500;10.020;2023-11-22T04:20:37;6.10;;;4.77;;
5742;SDS011;2896;53.500;10.020;2023-11-22T04:23:05;5.40;;;4.90;;
5742;SDS011;2896;53.500;10.020;2023-11-22T04:25:33;8.73;;;5.37;;
5742;SDS011;2896;53.500;10.020;2023-11-22T04:28:00;7.63;;;5.50;;
5742;SDS011;2896;53.500;10.020;2023-11-22T04:30:26;5.23;;;4.80;;
5742;SDS011;2896;53.500;10.020;2023-11-22T04:32:53;5.17;;;4.67;;
5742;SDS011;2896;53.500;10.020;2023-11-22T04:35:20;5.40;;;5.00;;
5742;SDS011;2896;53.500;10.020;2023-11-22T04:37:46;5.10;;;4.60;;
5742;SDS011;2896;53.500;10.020;2023-11-22T04:40:13;6.03;;;4.97;;
5742;SDS011;2896;53.500;10.020;2023-11-22T04:42:41;6.13;;;5.40;;
5742;SDS011;2896;53.500;10.020;2023-11-22T04:45:08;9.43;;;5.23;;
5742;SDS011;2896;53.500;10.020;2023-11-22T04:47:35;5.80;;;5.23;;
5742;SDS011;2896;53.500;10.020;2023-11-22T04:50:02;13.57;;;6.77;;
5742;SDS011;2896;53.500;10.020;2023-11-22T04:52:29;8.20;;;5.83;;
5742;SDS011;2896;53.500;10.020;2023-11-22T04:54:56;8.43;;;5.70;;
5742;SDS011;2896;53.500;10.020;2023-11-22T04:57:23;10.60;;;5.20;;
5742;SDS011;2896;53.500;10.020;2023-11-22T04:59:51;7.57;;;5.63;;
5742;SDS011;2896;53.500;10.020;2023-11-22T05:02:19;6.53;;;5.70;;
5742;SDS011;2896;53.500;10.020;2023-11-22T05:04:45;6.47;;;5.73;;
5742;SDS011;2896;53.500;10.020;2023-11-22T05:07:14;6.53;;;5.87;;
5742;SDS011;2896;53.500;10.020;2023-11-22T05:09:40;6.60;;;5.70;;
5742;SDS011;2896;53.500;10.020;2023-11-22T05:12:08;5.90;;;5.40;;
5742;SDS011;2896;53.500;10.020;2023-11-22T05:14:35;11.53;;;5.27;;
5742;SDS011;2896;53.500;10.020;2023-11-22T05:17:03;7.03;;;6.13;;
5742;SDS011;2896;53.500;10.020;2023-11-22T05:19:30;10.00;;;5.00;;
5742;SDS011;2896;53.500;10.020;2023-11-22T05:21:57;5.67;;;5.13;;
5742;SDS011;2896;53.500;10.020;2023-11-22T05:24:24;6.47;;;5.50;;
5742;SDS011;2896;53.500;10.020;2023-11-22T05:26:50;7.37;;;5.50;;
5742;SDS011;2896;53.500;10.020;2023-11-22T05:29:17;5.33;;;4.77;;
5742;SDS011;2896;53.500;10.020;2023-11-22T05:31:44;6.80;;;5.50;;
5742;SDS011;2896;53.500;10.020;2023-11-22T05:34:12;6.93;;;5.70;;
5742;SDS011;2896;53.500;10.020;2023-11-22T05:36:39;6.43;;;5.83;;
5742;SDS011;2896;53.500;10.020;2023-11-22T05:39:06;10.10;;;6.33;;
5742;SDS011;2896;53.500;10.020;2023-11-22T05:41:32;8.47;;;6.17;;
5742;SDS011;2896;53.500;10.020;2023-11-22T05:43:59;7.97;;;5.43;;
5742;SDS011;2896;53.500;10.020;2023-11-22T05:46:26;6.90;;;5.83;;
5742;SDS011;2896;53.500;10.020;2023-11-22T05:48:52;6.53;;;5.83;;
5742;SDS011;2896;53.500;10.020;2023-11-22T05:51:21;8.40;;;6.17;;
5742;SDS011;2896;53.500;10.020;2023-11-22T05:53:47;6.83;;;6.03;;
5742;SDS011;2896;53.500;10.020;2023-11-22T05:56:14;6.90;;;6.00;;
5742;SDS011;2896;53.500;10.020;2023-11-22T05:58:42;7.30;;;6.37;;
5742;SDS011;2896;53.500;10.020;2023-11-22T06:01:08;7.67;;;5.47;;
5742;SDS011;2896;53.500;10.020;2023-11-22T06:03:36;9.33;;;6.80;;
5742;SDS011;2896;53.500;10.020;2023-11-22T06:06:04;9.43;;;6.87;;
5742;SDS011;2896;53.500;10.020;2023-11-22T06:08:33;9.27;;;5.90;;
5742;SDS011;2896;53.500;10.020;2023-11-22T06:10:59;11.57;;;7.73;;
5742;SDS011;2896;53.500;10.020;2023-11-22T06:13:26;9.13;;;6.77;;
5742;SDS011;2896;53.500;10.020;2023-11-22T06:15:53;9.90;;;6.83;;
5742;SDS011;2896;53.500;10.020;2023-11-22T06:18:20;7.73;;;6.60;;
5742;SDS011;2896;53.500;10.020;2023-11-22T06:20:46;10.00;;;7.40;;
5742;SDS011;2896;53.500;10.020;2023-11-22T06:23:13;8.43;;;7.57;;
5742;SDS011;2896;53.500;10.020;2023-11-22T06:25:41;8.73;;;7.20;;
5742;SDS011;2896;53.500;10.020;2023-11-22T06:28:08;11.03;;;7.30;;
5742;SDS011;2896;53.500;10.020;2023-11-22T06:30:35;9.40;;;6.30;;
5742;SDS011;2896;53.500;10.020;2023-11-22T06:33:02;9.37;;;6.90;;
5742;SDS011;2896;53.500;10.020;2023-11-22T06:35:30;14.63;;;7.67;;
5742;SDS011;2896;53.500;10.020;2023-11-22T06:37:58;11.20;;;8.10;;
5742;SDS011;2896;53.500;10.020;2023-11-22T06:40:24;10.57;;;7.77;;
5742;SDS011;2896;53.500;10.020;2023-11-22T06:42:52;11.93;;;7.77;;
5742;SDS011;2896;53.500;10.020;2023-11-22T06:45:19;8.27;;;7.47;;
5742;SDS011;2896;53.500;10.020;2023-11-22T06:47:46;10.80;;;7.87;;
5742;SDS011;2896;53.500;10.020;2023-11-22T06:50:12;11.97;;;8.20;;
5742;SDS011;2896;53.500;10.020;2023-11-22T06:52:41;8.63;;;6.83;;
5742;SDS011;2896;53.500;10.020;2023-11-22T06:55:08;12.33;;;7.77;;
5742;SDS011;2896;53.500;10.020;2023-11-22T06:57:36;9.60;;;7.23;;
5742;SDS011;2896;53.500;10.020;2023-11-22T07:00:05;8.77;;;6.77;;
5742;SDS011;2896;53.500;10.020;2023-11-22T07:02:34;13.60;;;8.03;;
5742;SDS011;2896;53.500;10.020;2023-11-22T07:05:01;12.07;;;8.60;;
5742;SDS011;2896;53.500;10.020;2023-11-22T07:07:28;9.10;;;7.23;;
5742;SDS011;2896;53.500;10.020;2023-11-22T07:09:55;10.53;;;7.40;;
5742;SDS011;2896;53.500;10.020;2023-11-22T07:12:23;13.70;;;7.50;;
5742;SDS011;2896;53.500;10.020;2023-11-22T07:14:50;9.20;;;6.33;;
5742;SDS011;2896;53.500;10.020;2023-11-22T07:17:18;10.00;;;7.23;;
5742;SDS011;2896;53.500;10.020;2023-11-22T07:19:46;10.83;;;8.20;;
5742;SDS011;2896;53.500;10.020;2023-11-22T07:22:13;14.50;;;9.17;;
5742;SDS011;2896;53.500;10.020;2023-11-22T07:24:42;14.47;;;9.30;;
5742;SDS011;2896;53.500;10.020;2023-11-22T07:27:09;12.80;;;8.37;;
5742;SDS011;2896;53.500;10.020;2023-11-22T07:29:37;13.60;;;9.93;;
5742;SDS011;2896;53.500;10.020;2023-11-22T07:32:04;17.27;;;10.67;;
5742;SDS011;2896;53.500;10.020;2023-11-22T07:34:33;11.73;;;8.40;;
5742;SDS011;2896;53.500;10.020;2023-11-22T07:37:00;16.90;;;11.00;;
5742;SDS011;2896;53.500;10.020;2023-11-22T07:39:27;17.50;;;10.23;;
5742;SDS011;2896;53.500;10.020;2023-11-22T07:41:54;14.30;;;9.73;;
5742;SDS011;2896;53.500;10.020;2023-11-22T07:44:21;23.80;;;10.40;;
5742;SDS011;2896;53.500;10.020;2023-11-22T07:46:49;15.53;;;9.00;;
5742;SDS011;2896;53.500;10.020;2023-11-22T07:49:16;13.57;;;8.97;;
5742;SDS011;2896;53.500;10.020;2023-11-22T07:51:44;17.60;;;9.70;;
5742;SDS011;2896;53.500;10.020;2023-11-22T07:54:11;12.30;;;9.30;;
5742;SDS011;2896;53.500;10.020;2023-11-22T07:56:40;16.27;;;10.60;;
5742;SDS011;2896;53.500;10.020;2023-11-22T07:59:08;15.90;;;9.57;;
5742;SDS011;2896;53.500;10.020;2023-11-22T08:01:35;10.47;;;7.93;;
5742;SDS011;2896;53.500;10.020;2023-11-22T08:04:03;15.33;;;9.63;;
5742;SDS011;2896;53.500;10.020;2023-11-22T08:06:30;10.27;;;8.93;;
5742;SDS011;2896;53.500;10.020;2023-11-22T08:08:58;12.53;;;9.63;;
5742;SDS011;2896;53.500;10.020;2023-11-22T08:11:26;14.60;;;10.50;;
5742;SDS011;2896;53.500;10.020;2023-11-22T08:13:53;12.33;;;9.33;;
5742;SDS011;2896;53.500;10.020;2023-11-22T08:16:24;10.37;;;8.30;;
5742;SDS011;2896;53.500;10.020;2023-11-22T08:18:51;10.70;;;8.03;;
5742;SDS011;2896;53.500;10.020;2023-11-22T08:21:18;12.33;;;8.20;;
5742;SDS011;2896;53.500;10.020;2023-11-22T08:23:45;10.53;;;7.63;;
5742;SDS011;2896;53.500;10.020;2023-11-22T08:26:14;7.90;;;7.10;;
5742;SDS011;2896;53.500;10.020;2023-11-22T08:28:41;8.90;;;7.23;;
5742;SDS011;2896;53.500;10.020;2023-11-22T08:31:09;11.50;;;8.00;;
5742;SDS011;2896;53.500;10.020;2023-11-22T08:33:35;10.30;;;8.10;;
5742;SDS011;2896;53.500;10.020;2023-11-22T08:36:02;10.87;;;7.97;;
5742;SDS011;2896;53.500;10.020;2023-11-22T08:38:30;10.27;;;8.40;;
5742;SDS011;2896;53.500;10.020;2023-11-22T08:40:58;13.70;;;10.17;;
5742;SDS011;2896;53.500;10.020;2023-11-22T08:43:28;15.93;;;9.83;;
5742;SDS011;2896;53.500;10.020;2023-11-22T08:45:56;16.67;;;10.03;;
5742;SDS011;2896;53.500;10.020;2023-11-22T08:48:23;15.93;;;11.13;;
5742;SDS011;2896;53.500;10.020;2023-11-22T08:50:50;14.60;;;10.97;;
5742;SDS011;2896;53.500;10.020;2023-11-22T08:53:18;17.80;;;12.10;;
5742;SDS011;2896;53.500;10.020;2023-11-22T08:55:45;14.70;;;10.13;;
5742;SDS011;2896;53.500;10.020;2023-11-22T08:58:12;18.40;;;12.00;;
5742;SDS011;2896;53.500;10.020;2023-11-22T09:00:40;15.00;;;10.30;;
5742;SDS011;2896;53.500;10.020;2023-11-22T09:03:07;16.37;;;11.37;;
5742;SDS011;2896;53.500;10.020;2023-11-22T09:05:35;12.60;;;9.77;;
5742;SDS011;2896;53.500;10.020;2023-11-22T09:08:02;18.13;;;11.50;;
5742;SDS011;2896;53.500;10.020;2023-11-22T09:10:29;14.50;;;11.60;;
5742;SDS011;2896;53.500;10.020;2023-11-22T09:12:56;12.90;;;9.97;;
5742;SDS011;2896;53.500;10.020;2023-11-22T09:15:24;15.07;;;10.23;;
5742;SDS011;2896;53.500;10.020;2023-11-22T09:17:55;27.27;;;13.73;;
5742;SDS011;2896;53.500;10.020;2023-11-22T09:20:23;24.37;;;15.23;;
5742;SDS011;2896;53.500;10.020;2023-11-22T09:22:50;19.07;;;13.47;;
5742;SDS011;2896;53.500;10.020;2023-11-22T09:25:18;17.03;;;12.83;;
5742;SDS011;2896;53.500;10.020;2023-11-22T09:27:46;16.87;;;11.00;;
5742;SDS011;2896;53.500;10.020;2023-11-22T09:30:14;12.77;;;10.13;;
5742;SDS011;2896;53.500;10.020;2023-11-22T09:32:58;14.23;;;9.87;;
5742;SDS011;2896;53.500;10.020;2023-11-22T09:35:25;15.23;;;11.23;;
5742;SDS011;2896;53.500;10.020;2023-11-22T09:37:54;15.63;;;10.07;;
5742;SDS011;2896;53.500;10.020;2023-11-22T09:40:21;16.00;;;10.60;;
5742;SDS011;2896;53.500;10.020;2023-11-22T09:42:48;12.07;;;9.67;;
5742;SDS011;2896;53.500;10.020;2023-11-22T09:45:16;13.93;;;10.30;;
5742;SDS011;2896;53.500;10.020;2023-11-22T09:47:44;24.03;;;10.37;;
5742;SDS011;2896;53.500;10.020;2023-11-22T09:50:13;13.90;;;10.57;;
5742;SDS011;2896;53.500;10.020;2023-11-22T09:52:45;18.30;;;10.90;;
5742;SDS011;2896;53.500;10.020;2023-11-22T09:55:15;19.60;;;12.03;;
5742;SDS011;2896;53.500;10.020;2023-11-22T09:57:42;17.23;;;11.23;;
5742;SDS011;2896;53.500;10.020;2023-11-22T10:00:10;16.03;;;11.10;;
5742;SDS011;2896;53.500;10.020;2023-11-22T10:02:39;14.67;;;9.87;;
5742;SDS011;2896;53.500;10.020;2023-11-22T10:05:06;15.30;;;11.20;;
5742;SDS011;2896;53.500;10.020;2023-11-22T10:07:35;15.00;;;10.87;;
5742;SDS011;2896;53.500;10.020;2023-11-22T10:10:03;19.80;;;11.63;;
5742;SDS011;2896;53.500;10.020;2023-11-22T10:12:31;19.40;;;11.97;;
5742;SDS011;2896;53.500;10.020;2023-11-22T10:15:11;14.83;;;11.40;;
5742;SDS011;2896;53.500;10.020;2023-11-22T10:17:39;13.00;;;9.30;;
5742;SDS011;2896;53.500;10.020;2023-11-22T10:20:06;17.43;;;10.43;;
5742;SDS011;2896;53.500;10.020;2023-11-22T10:22:45;10.43;;;8.40;;
5742;SDS011;2896;53.500;10.020;2023-11-22T10:25:13;13.53;;;10.23;;
5742;SDS011;2896;53.500;10.020;2023-11-22T10:27:43;13.33;;;10.13;;
5742;SDS011;2896;53.500;10.020;2023-11-22T10:30:11;14.97;;;9.63;;
5742;SDS011;2896;53.500;10.020;2023-11-22T10:32:38;14.13;;;9.30;;
5742;SDS011;2896;53.500;10.020;2023-11-22T10:35:05;12.33;;;10.00;;
5742;SDS011;2896;53.500;10.020;2023-11-22T10:37:32;17.93;;;9.27;;
5742;SDS011;2896;53.500;10.020;2023-11-22T10:40:01;13.47;;;9.63;;
5742;SDS011;2896;53.500;10.020;2023-11-22T10:42:30;22.83;;;10.70;;
5742;SDS011;2896;53.500;10.020;2023-11-22T10:44:58;13.63;;;9.40;;
5742;SDS011;2896;53.500;10.020;2023-11-22T10:47:28;16.60;;;10.30;;
5742;SDS011;2896;53.500;10.020;2023-11-22T10:49:56;12.83;;;9.43;;
5742;SDS011;2896;53.500;10.020;2023-11-22T10:52:26;11.47;;;9.00;;
5742;SDS011;2896;53.500;10.020;2023-11-22T10:54:54;16.40;;;9.30;;
5742;SDS011;2896;53.500;10.020;2023-11-22T10:57:31;10.60;;;8.10;;
5742;SDS011;2896;53.500;10.020;2023-11-22T11:00:00;12.20;;;8.70;;
5742;SDS011;2896;53.500;10.020;2023-11-22T11:02:33;12.97;;;7.30;;
5742;SDS011;2896;53.500;10.020;2023-11-22T11:05:07;12.13;;;7.87;;
5742;SDS011;2896;53.500;10.020;2023-11-22T11:07:44;10.23;;;7.00;;
5742;SDS011;2896;53.500;10.020;2023-11-22T11:10:18;10.10;;;8.33;;
5742;SDS011;2896;53.500;10.020;2023-11-22T11:12:49;8.97;;;6.70;;
5742;SDS011;2896;53.500;10.020;2023-11-22T11:15:16;8.17;;;7.13;;
5742;SDS011;2896;53.500;10.020;2023-11-22T11:17:43;8.83;;;7.13;;
5742;SDS011;2896;53.500;10.020;2023-11-22T11:20:12;8.67;;;6.27;;
5742;SDS011;2896;53.500;10.020;2023-11-22T11:22:42;17.10;;;6.00;;
5742;SDS011;2896;53.500;10.020;2023-11-22T11:25:11;5.90;;;5.17;;
5742;SDS011;2896;53.500;10.020;2023-11-22T11:27:41;10.00;;;5.40;;
5742;SDS011;2896;53.500;10.020;2023-11-22T11:33:11;7.47;;;5.53;;
5742;SDS011;2896;53.500;10.020;2023-11-22T11:35:41;4.43;;;4.03;;
5742;SDS011;2896;53.500;10.020;2023-11-22T11:38:11;5.50;;;4.70;;
5742;SDS011;2896;53.500;10.020;2023-11-22T11:40:39;5.30;;;4.60;;
5742;SDS011;2896;53.500;10.020;2023-11-22T11:43:07;7.03;;;3.70;;
5742;SDS011;2896;53.500;10.020;2023-11-22T11:45:37;4.67;;;4.27;;
5742;SDS011;2896;53.500;10.020;2023-11-22T11:48:06;4.40;;;4.00;;
5742;SDS011;2896;53.500;10.020;2023-11-22T11:50:33;10.40;;;3.60;;
5742;SDS011;2896;53.500;10.020;2023-11-22T11:53:00;4.97;;;3.80;;
5742;SDS011;2896;53.500;10.020;2023-11-22T11:55:28;3.83;;;3.53;;
5742;SDS011;2896;53.500;10.020;2023-11-22T11:57:54;3.73;;;3.40;;
5742;SDS011;2896;53.500;10.020;2023-11-22T12:00:21;3.87;;;3.37;;
5742;SDS011;2896;53.500;10.020;2023-11-22T12:02:49;3.60;;;3.13;;
5742;SDS011;2896;53.500;10.020;2023-11-22T12:05:19;3.53;;;3.20;;
5742;SDS011;2896;53.500;10.020;2023-11-22T12:07:46;4.43;;;3.23;;
5742;SDS011;2896;53.500;10.020;2023-11-22T12:10:12;3.03;;;2.90;;
5742;SDS011;2896;53.500;10.020;2023-11-22T12:12:39;3.43;;;2.80;;
5742;SDS011;2896;53.500;10.020;2023-11-22T12:15:09;3.13;;;2.57;;
5742;SDS011;2896;53.500;10.020;2023-11-22T12:17:36;4.40;;;2.70;;
5742;SDS011;2896;53.500;10.020;2023-11-22T12:20:12;3.17;;;2.87;;
5742;SDS011;2896;53.500;10.020;2023-11-22T12:22:42;5.30;;;3.10;;
5742;SDS011;2896;53.500;10.020;2023-11-22T12:25:09;5.70;;;3.00;;
5742;SDS011;2896;53.500;10.020;2023-11-22T12:27:39;3.00;;;2.87;;
5742;SDS011;2896;53.500;10.020;2023-11-22T12:30:09;6.07;;;3.37;;
5742;SDS011;2896;53.500;10.020;2023-11-22T12:32:53;4.63;;;3.43;;
5742;SDS011;2896;53.500;10.020;2023-11-22T12:35:19;4.43;;;3.70;;
5742;SDS011;2896;53.500;10.020;2023-11-22T12:37:48;3.30;;;3.07;;
5742;SDS011;2896;53.500;10.020;2023-11-22T12:40:15;7.00;;;3.80;;
5742;SDS011;2896;53.500;10.020;2023-11-22T12:42:49;4.20;;;3.40;;
5742;SDS011;2896;53.500;10.020;2023-11-22T12:45:20;7.50;;;3.50;;
5742;SDS011;2896;53.500;10.020;2023-11-22T12:47:49;3.93;;;2.90;;
5742;SDS011;2896;53.500;10.020;2023-11-22T12:50:31;3.30;;;3.07;;
5742;SDS011;2896;53.500;10.020;2023-11-22T12:53:08;3.93;;;3.37;;
5742;SDS011;2896;53.500;10.020;2023-11-22T12:55:36;4.33;;;3.07;;
5742;SDS011;2896;53.500;10.020;2023-11-22T12:58:04;6.00;;;3.70;;
5742;SDS011;2896;53.500;10.020;2023-11-22T13:00:32;6.67;;;4.60;;
5742;SDS011;2896;53.500;10.020;2023-11-22T13:02:59;8.80;;;3.87;;
5742;SDS011;2896;53.500;10.020;2023-11-22T13:05:25;2.50;;;2.40;;
5742;SDS011;2896;53.500;10.020;2023-11-22T13:07:52;4.00;;;2.80;;
5742;SDS011;2896;53.500;10.020;2023-11-22T13:10:20;4.13;;;3.77;;
5742;SDS011;2896;53.500;10.020;2023-11-22T13:12:50;4.07;;;3.67;;
5742;SDS011;2896;53.500;10.020;2023-11-22T13:15:18;3.37;;;2.43;;
5742;SDS011;2896;53.500;10.020;2023-11-22T13:17:48;4.20;;;1.87;;
5742;SDS011;2896;53.500;10.020;2023-11-22T13:20:15;5.37;;;4.10;;
5742;SDS011;2896;53.500;10.020;2023-11-22T13:22:44;6.47;;;3.80;;
5742;SDS011;2896;53.500;10.020;2023-11-22T13:25:12;9.13;;;5.00;;
5742;SDS011;2896;53.500;10.020;2023-11-22T13:27:40;5.40;;;4.00;;
5742;SDS011;2896;53.500;10.020;2023-11-22T13:30:07;3.67;;;2.90;;
5742;SDS011;2896;53.500;10.020;2023-11-22T13:32:34;2.70;;;2.50;;
5742;SDS011;2896;53.500;10.020;2023-11-22T13:35:01;3.00;;;2.63;;
5742;SDS011;2896;53.500;10.020;2023-11-22T13:37:30;2.43;;;2.23;;
5742;SDS011;2896;53.500;10.020;2023-11-22T13:39:57;2.03;;;1.90;;
5742;SDS011;2896;53.500;10.020;2023-11-22T13:42:23;2.40;;;2.20;;
5742;SDS011;2896;53.500;10.020;2023-11-22T13:44:51;1.73;;;1.73;;
5742;SDS011;2896;53.500;10.020;2023-11-22T13:47:18;2.20;;;2.10;;
5742;SDS011;2896;53.500;10.020;2023-11-22T13:49:44;3.10;;;1.83;;
5742;SDS011;2896;53.500;10.020;2023-11-22T13:52:12;1.70;;;1.60;;
5742;SDS011;2896;53.500;10.020;2023-11-22T13:54:38;2.10;;;2.00;;
5742;SDS011;2896;53.500;10.020;2023-11-22T13:57:05;3.20;;;2.90;;
5742;SDS011;2896;53.500;10.020;2023-11-22T13:59:32;3.90;;;3.60;;
5742;SDS011;2896;53.500;10.020;2023-11-22T14:02:00;2.97;;;2.50;;
5742;SDS011;2896;53.500;10.020;2023-11-22T14:04:27;1.83;;;1.73;;
5742;SDS011;2896;53.500;10.020;2023-11-22T14:06:54;3.37;;;2.03;;
5742;SDS011;2896;53.500;10.020;2023-11-22T14:09:20;4.33;;;1.73;;
5742;SDS011;2896;53.500;10.020;2023-11-22T14:11:47;2.00;;;1.73;;
5742;SDS011;2896;53.500;10.020;2023-11-22T14:14:14;2.30;;;2.20;;
5742;SDS011;2896;53.500;10.020;2023-11-22T14:16:41;2.20;;;2.10;;
5742;SDS011;2896;53.500;10.020;2023-11-22T14:19:11;2.03;;;1.93;;
5742;SDS011;2896;53.500;10.020;2023-11-22T14:21:38;2.60;;;2.40;;
5742;SDS011;2896;53.500;10.020;2023-11-22T14:24:05;2.60;;;2.10;;
5742;SDS011;2896;53.500;10.020;2023-11-22T14:26:33;2.20;;;2.10;;
5742;SDS011;2896;53.500;10.020;2023-11-22T14:29:00;2.40;;;2.30;;
5742;SDS011;2896;53.500;10.020;2023-11-22T14:31:28;2.37;;;2.27;;
5742;SDS011;2896;53.500;10.020;2023-11-22T14:33:55;3.00;;;2.40;;
5742;SDS011;2896;53.500;10.020;2023-11-22T14:36:23;2.13;;;2.03;;
5742;SDS011;2896;53.500;10.020;2023-11-22T14:38:51;2.30;;;2.10;;
5742;SDS011;2896;53.500;10.020;2023-11-22T14:41:21;3.10;;;2.80;;
5742;SDS011;2896;53.500;10.020;2023-11-22T14:43:48;2.40;;;2.30;;
5742;SDS011;2896;53.500;10.020;2023-11-22T14:46:14;2.73;;;2.63;;
5742;SDS011;2896;53.500;10.020;2023-11-22T14:48:42;3.40;;;3.10;;
5742;SDS011;2896;53.500;10.020;2023-11-22T14:51:11;2.50;;;2.30;;
5742;SDS011;2896;53.500;10.020;2023-11-22T14:53:39;3.60;;;3.30;;
5742;SDS011;2896;53.500;10.020;2023-11-22T14:56:09;3.23;;;3.03;;
5742;SDS011;2896;53.500;10.020;2023-11-22T14:58:36;2.97;;;2.80;;
5742;SDS011;2896;53.500;10.020;2023-11-22T15:01:03;3.70;;;3.40;;